createdAt,value
2023-02-07T00:01:25.077Z,68.55
2023-02-07T00:03:54.400Z,121.30
2023-02-07T00:06:24.905Z,80.55
2023-02-07T00:08:53.134Z,50.60
2023-02-07T00:11:21.613Z,76.32
2023-02-07T00:13:52.468Z,61.55
2023-02-07T00:16:20.743Z,55.67
2023-02-07T00:18:48.150Z,49.10
2023-02-07T00:21:18.140Z,51.60
2023-02-07T00:23:46.483Z,44.17
2023-02-07T00:26:15.264Z,52.40
2023-02-07T00:28:43.296Z,50.80
2023-02-07T00:31:16.236Z,59.38
2023-02-07T00:33:44.877Z,61.53
2023-02-07T00:36:15.201Z,61.30
2023-02-07T00:38:43.214Z,47.45
2023-02-07T00:41:15.141Z,44.00
2023-02-07T00:43:43.089Z,45.65
2023-02-07T00:46:10.604Z,43.65
2023-02-07T00:48:40.152Z,43.90
2023-02-07T00:51:09.546Z,47.05
2023-02-07T00:53:36.702Z,40.00
2023-02-07T00:56:03.905Z,33.53
2023-02-07T00:58:31.428Z,34.65
2023-02-07T01:00:58.637Z,32.80
2023-02-07T01:03:25.837Z,36.97
2023-02-07T01:05:53.266Z,30.35
2023-02-07T01:08:20.506Z,32.22
2023-02-07T01:10:47.740Z,31.35
2023-02-07T01:13:16.185Z,34.42
2023-02-07T01:15:45.635Z,32.67
2023-02-07T01:18:13.338Z,30.50
2023-02-07T01:20:41.027Z,29.75
2023-02-07T01:23:12.418Z,29.27
2023-02-07T01:25:40.239Z,30.40
2023-02-07T01:28:07.971Z,29.23
2023-02-07T01:30:35.366Z,34.40
2023-02-07T01:33:02.672Z,31.33
2023-02-07T01:35:30.400Z,31.17
2023-02-07T01:38:02.645Z,37.45
2023-02-07T01:40:31.446Z,34.58
2023-02-07T01:42:59.292Z,50.22
2023-02-07T01:45:36.404Z,48.35
2023-02-07T01:48:09.083Z,43.95
2023-02-07T01:50:36.531Z,30.83
2023-02-07T01:53:05.109Z,44.65
2023-02-07T01:55:35.606Z,43.05
2023-02-07T01:58:04.835Z,37.03
2023-02-07T02:00:32.271Z,46.10
2023-02-07T02:02:59.743Z,46.15
2023-02-07T02:05:29.035Z,47.00
2023-02-07T02:07:56.552Z,50.22
2023-02-07T02:10:28.576Z,44.13
2023-02-07T02:13:20.730Z,38.67
2023-02-07T02:15:54.839Z,45.60
2023-02-07T02:18:46.711Z,51.63
2023-02-07T02:21:26.454Z,49.58
2023-02-07T02:24:11.612Z,51.30
2023-02-07T02:26:46.746Z,44.67
2023-02-07T02:29:50.299Z,39.35
2023-02-07T02:32:35.997Z,33.33
2023-02-07T02:35:12.351Z,41.22
2023-02-07T02:38:05.979Z,37.92
2023-02-07T02:40:53.440Z,35.33
2023-02-07T02:43:28.972Z,34.50
2023-02-07T02:46:05.520Z,40.03
2023-02-07T02:48:34.228Z,31.48
2023-02-07T02:51:02.129Z,34.75
2023-02-07T02:53:29.532Z,27.05
2023-02-07T02:56:08.944Z,34.47
2023-02-07T02:59:06.067Z,34.22
2023-02-07T03:01:49.193Z,33.30
2023-02-07T03:04:36.837Z,34.58
2023-02-07T03:07:31.248Z,31.05
2023-02-07T03:10:19.825Z,101.93
2023-02-07T03:13:18.341Z,27.60
2023-02-07T03:16:00.979Z,31.73
2023-02-07T03:18:48.367Z,31.95
2023-02-07T03:21:25.078Z,29.12
2023-02-07T03:23:53.847Z,27.77
2023-02-07T03:26:21.861Z,31.48
2023-02-07T03:28:53.742Z,30.55
2023-02-07T03:31:23.309Z,36.35
2023-02-07T03:33:54.900Z,25.05
2023-02-07T03:36:27.703Z,20.90
2023-02-07T03:38:54.840Z,26.87
2023-02-07T03:41:28.610Z,24.17
2023-02-07T03:43:58.172Z,30.65
2023-02-07T03:46:26.447Z,25.88
2023-02-07T03:48:53.626Z,27.10
2023-02-07T03:51:21.264Z,26.77
2023-02-07T03:53:48.453Z,28.27
2023-02-07T03:56:15.630Z,34.38
2023-02-07T03:58:43.098Z,32.75
2023-02-07T04:01:10.471Z,29.02
2023-02-07T04:03:37.988Z,27.58
2023-02-07T04:06:05.550Z,28.60
2023-02-07T04:08:32.839Z,25.50
2023-02-07T04:11:02.308Z,34.90
2023-02-07T04:13:30.096Z,57.22
2023-02-07T04:15:57.412Z,28.73
2023-02-07T04:18:24.981Z,26.45
2023-02-07T04:20:52.358Z,27.20
2023-02-07T04:23:19.531Z,24.83
2023-02-07T04:25:47.003Z,24.98
2023-02-07T04:28:14.848Z,26.75
2023-02-07T04:30:42.085Z,29.58
2023-02-07T04:33:09.580Z,24.50
2023-02-07T04:35:37.021Z,26.60
2023-02-07T04:38:04.375Z,29.23
2023-02-07T04:40:31.908Z,25.25
2023-02-07T04:42:59.054Z,25.65
2023-02-07T04:45:26.219Z,24.23
2023-02-07T04:47:53.763Z,26.85
2023-02-07T04:50:20.949Z,29.15
2023-02-07T04:52:48.091Z,30.50
2023-02-07T04:55:15.584Z,30.20
2023-02-07T04:57:42.765Z,35.13
2023-02-07T05:00:10.730Z,29.23
2023-02-07T05:02:38.185Z,35.45
2023-02-07T05:05:05.634Z,30.62
2023-02-07T05:07:32.745Z,26.67
2023-02-07T05:10:00.282Z,24.25
2023-02-07T05:12:27.463Z,25.65
2023-02-07T05:14:54.649Z,33.47
2023-02-07T05:17:22.499Z,38.78
2023-02-07T05:19:49.666Z,23.33
2023-02-07T05:22:16.810Z,110.05
2023-02-07T05:24:44.362Z,50.38
2023-02-07T05:27:11.533Z,23.55
2023-02-07T05:29:38.660Z,26.77
2023-02-07T05:32:24.367Z,40.53
2023-02-07T05:34:51.656Z,20.88
2023-02-07T05:37:19.039Z,27.75
2023-02-07T05:39:46.196Z,36.60
2023-02-07T05:42:13.363Z,35.47
2023-02-07T05:44:40.826Z,32.15
2023-02-07T05:47:08.424Z,34.70
2023-02-07T05:49:35.630Z,35.60
2023-02-07T05:52:03.255Z,38.53
2023-02-07T05:54:30.430Z,36.13
2023-02-07T05:56:57.620Z,42.35
2023-02-07T05:59:25.235Z,35.65
2023-02-07T06:01:52.473Z,31.37
2023-02-07T06:04:21.541Z,48.33
2023-02-07T06:06:52.468Z,36.10
2023-02-07T06:09:20.129Z,40.55
2023-02-07T06:11:47.292Z,51.80
2023-02-07T06:14:14.476Z,105.90
2023-02-07T06:16:41.933Z,29.45
2023-02-07T06:19:11.356Z,60.88
2023-02-07T06:21:46.475Z,41.35
2023-02-07T06:24:15.746Z,59.35
2023-02-07T06:26:43.759Z,79.05
2023-02-07T06:29:10.911Z,92.65
2023-02-07T06:31:38.453Z,65.50
2023-02-07T06:34:06.162Z,54.03
2023-02-07T06:36:33.382Z,38.30
2023-02-07T06:39:00.875Z,54.92
2023-02-07T06:41:28.120Z,47.30
2023-02-07T06:43:55.327Z,40.88
2023-02-07T06:46:22.837Z,67.25
2023-02-07T06:48:50.134Z,120.30
2023-02-07T06:51:17.333Z,67.37
2023-02-07T06:53:44.839Z,71.43
2023-02-07T06:56:12.202Z,58.05
2023-02-07T06:58:39.483Z,56.78
2023-02-07T07:01:06.940Z,47.35
2023-02-07T07:03:34.258Z,50.55
2023-02-07T07:06:01.334Z,51.70
2023-02-07T07:08:28.856Z,73.93
2023-02-07T07:10:56.973Z,148.13
2023-02-07T07:13:24.927Z,69.95
2023-02-07T07:15:52.463Z,52.20
2023-02-07T07:18:19.621Z,89.40
2023-02-07T07:20:47.002Z,51.78
2023-02-07T07:23:14.506Z,40.65
2023-02-07T07:25:41.682Z,53.78
2023-02-07T07:28:08.906Z,56.75
2023-02-07T07:30:36.449Z,57.67
2023-02-07T07:33:03.758Z,42.65
2023-02-07T07:35:31.193Z,33.95
2023-02-07T07:37:58.690Z,27.33
2023-02-07T07:40:25.920Z,39.33
2023-02-07T07:42:53.109Z,32.20
2023-02-07T07:45:20.961Z,31.27
2023-02-07T07:47:48.202Z,38.38
2023-02-07T07:50:15.547Z,28.98
2023-02-07T07:52:43.556Z,30.73
2023-02-07T07:55:10.961Z,33.50
2023-02-07T07:57:38.324Z,30.92
2023-02-07T08:00:06.431Z,51.92
2023-02-07T08:02:40.986Z,38.10
2023-02-07T08:05:08.904Z,30.45
2023-02-07T08:07:36.122Z,29.98
2023-02-07T08:10:05.696Z,25.08
2023-02-07T08:12:33.319Z,31.85
2023-02-07T08:15:00.556Z,32.80
2023-02-07T08:17:27.750Z,30.05
2023-02-07T08:19:55.286Z,31.62
2023-02-07T08:22:22.495Z,30.58
2023-02-07T08:24:50.085Z,31.73
2023-02-07T08:27:17.675Z,27.00
2023-02-07T08:29:46.125Z,22.73
2023-02-07T08:32:14.156Z,27.37
2023-02-07T08:34:41.613Z,30.23
2023-02-07T08:37:09.502Z,28.50
2023-02-07T08:39:36.775Z,25.40
2023-02-07T08:42:08.254Z,30.30
2023-02-07T08:44:36.564Z,31.40
2023-02-07T08:47:05.261Z,29.63
2023-02-07T08:49:32.467Z,27.13
2023-02-07T08:51:59.667Z,30.52
2023-02-07T08:54:27.203Z,29.15
2023-02-07T08:56:54.416Z,30.42
2023-02-07T08:59:21.668Z,29.48
2023-02-07T09:01:49.256Z,52.97
2023-02-07T09:04:16.645Z,32.22
2023-02-07T09:06:43.816Z,35.65
2023-02-07T09:09:11.354Z,32.00
2023-02-07T09:11:38.647Z,29.12
2023-02-07T09:14:06.174Z,30.70
2023-02-07T09:16:36.574Z,32.60
2023-02-07T09:19:14.604Z,35.30
2023-02-07T09:21:42.303Z,59.25
2023-02-07T09:24:09.483Z,33.78
2023-02-07T09:26:38.926Z,33.15
2023-02-07T09:29:07.112Z,24.35
2023-02-07T09:31:34.878Z,28.73
2023-02-07T09:34:03.009Z,29.85
2023-02-07T09:36:30.963Z,34.20
2023-02-07T09:38:59.206Z,28.08
2023-02-07T09:41:56.678Z,27.80
2023-02-07T09:44:52.512Z,24.95
2023-02-07T09:47:22.669Z,48.50
2023-02-07T09:49:56.949Z,35.05
2023-02-07T09:52:24.051Z,30.37
2023-02-07T09:54:53.607Z,32.92
2023-02-07T09:57:37.787Z,27.65
2023-02-07T10:00:10.254Z,38.15
2023-02-07T10:02:59.018Z,25.85
2023-02-07T10:05:39.432Z,31.50
2023-02-07T10:08:11.236Z,28.52
2023-02-07T10:10:43.149Z,25.00
2023-02-07T10:13:26.175Z,22.60
2023-02-07T10:16:18.361Z,33.20
2023-02-07T10:18:50.628Z,35.70
2023-02-07T10:21:22.720Z,33.17
2023-02-07T10:24:03.897Z,27.83
2023-02-07T10:26:43.359Z,24.75
2023-02-07T10:29:26.163Z,27.02
2023-02-07T10:31:55.066Z,70.78
2023-02-07T10:34:25.240Z,25.77
2023-02-07T10:36:53.699Z,23.73
2023-02-07T10:39:43.275Z,27.62
2023-02-07T10:42:16.071Z,24.45
2023-02-07T10:44:43.499Z,28.87
2023-02-07T10:47:16.662Z,28.85
2023-02-07T10:49:47.379Z,24.08
2023-02-07T10:52:35.168Z,28.60
2023-02-07T10:55:05.524Z,25.45
2023-02-07T10:57:33.065Z,28.73
2023-02-07T11:00:10.871Z,27.75
2023-02-07T11:02:49.818Z,26.62
2023-02-07T11:05:17.002Z,22.95
2023-02-07T11:08:23.087Z,24.15
2023-02-07T11:10:53.241Z,25.33
2023-02-07T11:13:28.133Z,21.48
2023-02-07T11:16:04.236Z,22.70
2023-02-07T11:18:39.319Z,21.87
2023-02-07T11:21:24.997Z,22.48
2023-02-07T11:23:55.814Z,26.30
2023-02-07T11:26:24.098Z,20.17
2023-02-07T11:29:03.453Z,24.10
2023-02-07T11:31:33.124Z,25.42
2023-02-07T11:34:37.821Z,26.20
2023-02-07T11:37:21.622Z,22.17
2023-02-07T11:39:50.667Z,18.20
2023-02-07T11:42:21.459Z,31.10
2023-02-07T11:44:50.574Z,21.12
2023-02-07T11:47:23.306Z,19.05
2023-02-07T11:49:52.797Z,22.20
2023-02-07T11:52:21.336Z,19.62
2023-02-07T11:54:53.375Z,22.10
2023-02-07T11:57:22.165Z,20.67
2023-02-07T12:00:28.577Z,20.40
2023-02-07T12:03:27.534Z,24.08
2023-02-07T12:05:58.576Z,30.35
2023-02-07T12:08:30.122Z,50.12
2023-02-07T12:11:11.415Z,19.25
2023-02-07T12:13:51.867Z,28.35
2023-02-07T12:16:32.774Z,25.75
2023-02-07T12:19:05.462Z,30.70
2023-02-07T12:22:06.873Z,44.38
2023-02-07T12:24:42.801Z,18.37
2023-02-07T12:27:18.123Z,20.80
2023-02-07T12:29:57.856Z,22.35
2023-02-07T12:32:46.060Z,28.12
2023-02-07T12:35:25.284Z,20.62
2023-02-07T12:38:11.779Z,22.10
2023-02-07T12:41:06.579Z,22.62
2023-02-07T12:43:37.950Z,23.15
2023-02-07T12:46:31.897Z,19.80
2023-02-07T12:49:22.698Z,47.70
2023-02-07T12:52:11.935Z,32.20
2023-02-07T12:54:41.828Z,89.10
2023-02-07T12:57:15.382Z,42.58
2023-02-07T13:00:04.035Z,21.25
2023-02-07T13:02:44.564Z,22.13
2023-02-07T13:05:26.997Z,25.73
2023-02-07T13:07:57.543Z,22.70
2023-02-07T13:10:43.458Z,27.02
2023-02-07T13:14:09.358Z,19.33
2023-02-07T13:16:44.395Z,31.10
2023-02-07T13:19:19.703Z,22.00
2023-02-07T13:21:53.070Z,22.10
2023-02-07T13:24:22.917Z,25.35
2023-02-07T13:26:55.273Z,28.95
2023-02-07T13:29:23.901Z,16.95
2023-02-07T13:31:57.359Z,23.33
2023-02-07T13:34:26.824Z,23.48
2023-02-07T13:36:54.082Z,26.92
2023-02-07T13:39:27.707Z,24.23
2023-02-07T13:44:57.754Z,38.47
2023-02-07T13:47:34.927Z,30.62
2023-02-07T13:50:04.673Z,25.83
2023-02-07T13:52:43.583Z,20.60
2023-02-07T13:55:19.936Z,40.80
2023-02-07T13:58:05.801Z,80.53
2023-02-07T14:00:56.117Z,26.52
2023-02-07T14:03:35.114Z,24.10
2023-02-07T14:06:25.807Z,25.25
2023-02-07T14:08:59.272Z,43.63
2023-02-07T14:11:34.401Z,48.53
2023-02-07T14:14:14.394Z,39.85
2023-02-07T14:17:09.977Z,35.35
2023-02-07T14:19:40.620Z,32.80
2023-02-07T14:22:24.634Z,31.30
2023-02-07T14:24:58.126Z,30.73
2023-02-07T14:27:50.763Z,34.42
2023-02-07T14:30:53.649Z,56.70
2023-02-07T14:33:22.289Z,79.20
2023-02-07T14:36:14.749Z,102.95
2023-02-07T14:38:46.118Z,28.77
2023-02-07T14:41:15.073Z,28.48
2023-02-07T14:43:44.347Z,67.18
2023-02-07T14:46:16.436Z,80.12
2023-02-07T14:48:51.555Z,66.18
2023-02-07T14:51:20.127Z,67.40
2023-02-07T14:54:12.462Z,57.58
2023-02-07T14:57:03.575Z,87.37
2023-02-07T14:59:34.038Z,86.95
2023-02-07T15:02:43.653Z,48.55
2023-02-07T15:05:14.141Z,63.45
2023-02-07T15:07:43.951Z,64.45
2023-02-07T15:10:29.594Z,62.58
2023-02-07T15:12:56.988Z,121.20
2023-02-07T15:15:30.198Z,93.37
2023-02-07T15:17:59.626Z,94.53
2023-02-07T15:20:33.110Z,110.50
2023-02-07T15:23:02.458Z,95.93
2023-02-07T15:25:31.751Z,217.37
2023-02-07T15:28:26.754Z,199.15
2023-02-07T15:30:55.012Z,107.30
2023-02-07T15:33:27.039Z,43.33
2023-02-07T15:35:54.551Z,42.75
2023-02-07T15:38:26.784Z,63.47
2023-02-07T15:40:55.231Z,69.05
2023-02-07T15:43:32.365Z,51.25
2023-02-07T15:46:02.743Z,46.63
2023-02-07T15:48:30.807Z,94.47
2023-02-07T15:51:00.752Z,55.65
2023-02-07T15:53:29.734Z,110.85
2023-02-07T15:55:57.716Z,81.10
2023-02-07T15:58:28.956Z,49.47
2023-02-07T16:01:01.786Z,53.20
2023-02-07T16:03:42.212Z,63.53
2023-02-07T16:06:19.245Z,86.45
2023-02-07T16:08:51.640Z,179.70
2023-02-07T16:11:27.546Z,155.15
2023-02-07T16:14:21.985Z,162.20
2023-02-07T16:16:57.125Z,178.10
2023-02-07T16:19:28.095Z,146.20
2023-02-07T16:22:07.029Z,180.90
2023-02-07T16:24:36.711Z,128.65
2023-02-07T16:27:05.795Z,141.77
2023-02-07T16:29:34.339Z,116.55
2023-02-07T16:32:01.912Z,96.82
2023-02-07T16:34:29.003Z,92.50
2023-02-07T16:36:56.325Z,98.20
2023-02-07T16:39:23.759Z,80.80
2023-02-07T16:41:54.004Z,118.00
2023-02-07T16:44:25.657Z,85.25
2023-02-07T16:46:53.108Z,91.72
2023-02-07T16:49:21.976Z,82.07
2023-02-07T16:51:49.541Z,109.78
2023-02-07T16:54:17.110Z,114.35
2023-02-07T16:56:45.015Z,94.07
2023-02-07T16:59:14.435Z,85.32
2023-02-07T17:01:41.909Z,85.28
2023-02-07T17:04:09.818Z,86.28
2023-02-07T17:06:37.021Z,73.55
2023-02-07T17:09:06.373Z,76.30
2023-02-07T17:11:33.567Z,72.30
2023-02-07T17:14:00.777Z,97.78
2023-02-07T17:16:28.373Z,99.97
2023-02-07T17:18:55.591Z,98.70
2023-02-07T17:21:23.808Z,68.75
2023-02-07T17:23:51.652Z,86.65
2023-02-07T17:26:30.021Z,62.62
2023-02-07T17:28:57.749Z,53.08
2023-02-07T17:31:25.242Z,46.88
2023-02-07T17:33:52.630Z,70.95
2023-02-07T17:36:20.186Z,65.97
2023-02-07T17:38:47.396Z,85.82
2023-02-07T17:41:15.655Z,85.40
2023-02-07T17:43:43.110Z,61.37
2023-02-07T17:46:19.217Z,67.47
2023-02-07T17:48:49.074Z,67.10
2023-02-07T17:51:17.308Z,63.10
2023-02-07T17:53:44.654Z,72.55
2023-02-07T17:56:24.189Z,75.40
2023-02-07T17:58:52.206Z,63.47
2023-02-07T18:01:19.691Z,56.22
2023-02-07T18:03:48.686Z,71.30
2023-02-07T18:06:17.763Z,48.38
2023-02-07T18:08:45.603Z,62.30
2023-02-07T18:11:14.330Z,57.88
2023-02-07T18:13:43.276Z,61.70
2023-02-07T18:16:18.718Z,60.95
2023-02-07T18:18:46.301Z,67.57
2023-02-07T18:21:13.825Z,56.22
2023-02-07T18:23:43.022Z,45.75
2023-02-07T18:26:16.846Z,45.15
2023-02-07T18:28:44.093Z,47.87
2023-02-07T18:31:17.580Z,67.50
2023-02-07T18:33:44.935Z,67.32
2023-02-07T18:36:12.604Z,52.25
2023-02-07T18:38:39.904Z,76.03
2023-02-07T18:41:11.608Z,57.45
2023-02-07T18:43:40.503Z,137.75
2023-02-07T18:46:12.557Z,72.22
2023-02-07T18:48:40.066Z,71.65
2023-02-07T18:51:11.408Z,74.37
2023-02-07T18:53:38.836Z,63.50
2023-02-07T18:56:18.697Z,77.32
2023-02-07T18:58:49.237Z,58.42
2023-02-07T19:01:20.128Z,63.17
2023-02-07T19:03:51.428Z,75.72
2023-02-07T19:06:18.966Z,61.95
2023-02-07T19:08:46.178Z,75.37
2023-02-07T19:11:13.449Z,75.00
2023-02-07T19:13:40.965Z,82.05
2023-02-07T19:16:12.686Z,75.30
2023-02-07T19:18:40.209Z,74.55
2023-02-07T19:21:10.618Z,69.43
2023-02-07T19:23:38.536Z,104.03
2023-02-07T19:26:06.499Z,70.47
2023-02-07T19:28:35.056Z,108.45
2023-02-07T19:31:03.868Z,69.65
2023-02-07T19:33:31.084Z,56.37
2023-02-07T19:36:07.422Z,75.70
2023-02-07T19:38:34.656Z,105.57
2023-02-07T19:41:03.118Z,94.35
2023-02-07T19:43:30.868Z,56.80
2023-02-07T19:45:58.139Z,73.97
2023-02-07T19:48:26.176Z,54.13
2023-02-07T19:51:05.564Z,64.82
2023-02-07T19:53:33.401Z,62.75
2023-02-07T19:56:02.451Z,57.90
2023-02-07T19:58:31.103Z,64.90
2023-02-07T20:00:59.363Z,72.40
2023-02-07T20:03:27.680Z,62.65
2023-02-07T20:05:54.928Z,79.55
2023-02-07T20:08:22.151Z,57.53
2023-02-07T20:10:49.634Z,67.03
2023-02-07T20:13:16.908Z,65.68
2023-02-07T20:15:45.868Z,73.78
2023-02-07T20:18:15.618Z,72.62
2023-02-07T20:20:43.969Z,69.22
2023-02-07T20:23:11.756Z,81.12
2023-02-07T20:25:40.084Z,82.53
2023-02-07T20:28:07.951Z,79.20
2023-02-07T20:30:35.803Z,108.03
2023-02-07T20:33:03.337Z,108.12
2023-02-07T20:35:30.519Z,139.55
2023-02-07T20:37:57.686Z,136.65
2023-02-07T20:40:25.072Z,113.32
2023-02-07T20:42:52.268Z,85.85
2023-02-07T20:45:19.420Z,92.72
2023-02-07T20:47:46.870Z,87.07
2023-02-07T20:50:14.276Z,83.32
2023-02-07T20:52:41.573Z,82.10
2023-02-07T20:55:09.407Z,95.30
2023-02-07T20:57:36.568Z,88.95
2023-02-07T21:00:04.950Z,70.05
2023-02-07T21:02:32.536Z,82.22
2023-02-07T21:04:59.726Z,82.93
2023-02-07T21:07:27.282Z,70.55
2023-02-07T21:09:54.924Z,83.95
2023-02-07T21:12:22.201Z,86.50
2023-02-07T21:14:49.282Z,105.75
2023-02-07T21:17:16.792Z,115.88
2023-02-07T21:19:43.873Z,137.45
2023-02-07T21:22:11.010Z,141.25
2023-02-07T21:24:38.455Z,103.38
2023-02-07T21:27:05.830Z,109.50
2023-02-07T21:29:34.159Z,97.35
2023-02-07T21:32:01.727Z,99.87
2023-02-07T21:34:28.897Z,84.93
2023-02-07T21:36:55.987Z,85.22
2023-02-07T21:39:24.390Z,84.78
2023-02-07T21:41:52.033Z,108.40
2023-02-07T21:44:21.169Z,81.55
2023-02-07T21:46:49.899Z,67.20
2023-02-07T21:49:19.452Z,72.53
2023-02-07T21:51:48.872Z,67.28
2023-02-07T21:54:16.733Z,108.05
2023-02-07T21:56:44.585Z,79.95
2023-02-07T21:59:14.709Z,73.72
2023-02-07T22:01:42.907Z,74.40
2023-02-07T22:04:10.818Z,73.70
2023-02-07T22:06:41.932Z,63.50
2023-02-07T22:09:11.476Z,69.55
2023-02-07T22:11:38.998Z,65.53
2023-02-07T22:14:06.309Z,64.22
2023-02-07T22:16:34.502Z,53.28
2023-02-07T22:19:04.407Z,53.92
2023-02-07T22:21:36.053Z,71.50
2023-02-07T22:24:05.063Z,78.22
2023-02-07T22:26:33.295Z,69.37
2023-02-07T22:29:00.386Z,56.37
2023-02-07T22:31:29.676Z,47.03
2023-02-07T22:34:00.457Z,53.30
2023-02-07T22:36:30.420Z,57.70
2023-02-07T22:38:59.925Z,46.00
2023-02-07T22:41:28.934Z,59.80
2023-02-07T22:43:56.181Z,56.53
2023-02-07T22:46:24.604Z,55.80
2023-02-07T22:48:53.370Z,77.68
2023-02-07T22:51:21.755Z,67.93
2023-02-07T22:53:50.318Z,66.75
2023-02-07T22:56:17.713Z,57.22
2023-02-07T22:58:45.106Z,64.78
2023-02-07T23:01:34.343Z,61.08
2023-02-07T23:04:03.555Z,59.85
2023-02-07T23:06:32.575Z,55.60
2023-02-07T23:09:00.518Z,63.15
2023-02-07T23:11:27.940Z,53.00
2023-02-07T23:13:55.337Z,58.85
2023-02-07T23:16:27.041Z,55.63
2023-02-07T23:18:58.479Z,51.80
2023-02-07T23:21:26.681Z,60.90
2023-02-07T23:23:54.417Z,77.32
2023-02-07T23:26:24.021Z,61.03
2023-02-07T23:28:51.749Z,66.60
2023-02-07T23:31:20.534Z,47.67
2023-02-07T23:33:48.417Z,54.67
2023-02-07T23:36:17.683Z,58.58
2023-02-07T23:38:46.015Z,61.78
2023-02-07T23:41:13.836Z,55.65
2023-02-07T23:43:41.515Z,60.03
2023-02-07T23:46:09.320Z,55.38
2023-02-07T23:48:38.606Z,52.40
2023-02-07T23:51:06.813Z,52.80
2023-02-07T23:53:34.335Z,47.42
2023-02-07T23:56:01.895Z,56.20
2023-02-07T23:58:28.996Z,50.03
